AAL1345 KBNA-KDFW
Flight info
| Callsign | AAL1345 |
|---|---|
| Flight time | 1h 46m |
| Altitude | 38000 |
| Route | DANLS4 TPEEE LIT FEWWW SEEVR4 |
| Aircraft | A20N/M-SDE2E3FGHIRWXY/LB1 |
Departure
| Time | 2026-05-05 21:15 |
|---|---|
| Airport | Nashville International Airport (KBNA) |
Arrival
| Time | 2026-05-05 23:02 |
|---|---|
| Airport | Dallas Fort Worth International Airport (KDFW) |
| Time | Latitude | Longitude | Altitude | Speed | Heading |
|---|---|---|---|---|---|
| 2026-05-05 20:54 | 36.13020 | -86.67041 | 573 ft | 0 kts | 102° |
| 2026-05-05 21:06 | 36.13025 | -86.67063 | 576 ft | 3 kts | 120° |
| 2026-05-05 21:07 | 36.13039 | -86.67083 | 573 ft | 3 kts | 152° |
| 2026-05-05 21:07 | 36.13058 | -86.67090 | 574 ft | 3 kts | 186° |
| 2026-05-05 21:07 | 36.13063 | -86.67090 | 571 ft | 0 kts | 195° |
| 2026-05-05 21:10 | 36.13061 | -86.67090 | 571 ft | 1 kts | 195° |
| 2026-05-05 21:10 | 36.13055 | -86.67093 | 577 ft | 1 kts | 195° |
| 2026-05-05 21:10 | 36.13044 | -86.67098 | 572 ft | 2 kts | 203° |
| 2026-05-05 21:10 | 36.13030 | -86.67108 | 577 ft | 3 kts | 210° |
| 2026-05-05 21:11 | 36.13011 | -86.67125 | 572 ft | 4 kts | 221° |
| 2026-05-05 21:11 | 36.12991 | -86.67149 | 578 ft | 5 kts | 223° |
| 2026-05-05 21:11 | 36.12964 | -86.67180 | 573 ft | 5 kts | 223° |
| 2026-05-05 21:11 | 36.12939 | -86.67206 | 574 ft | 5 kts | 216° |
| 2026-05-05 21:12 | 36.12906 | -86.67227 | 575 ft | 6 kts | 205° |
| 2026-05-05 21:12 | 36.12862 | -86.67260 | 578 ft | 8 kts | 217° |
| 2026-05-05 21:12 | 36.12817 | -86.67312 | 583 ft | 9 kts | 224° |
| 2026-05-05 21:12 | 36.12772 | -86.67364 | 580 ft | 8 kts | 223° |
| 2026-05-05 21:13 | 36.12729 | -86.67413 | 581 ft | 9 kts | 218° |
| 2026-05-05 21:13 | 36.12673 | -86.67458 | 583 ft | 10 kts | 211° |
| 2026-05-05 21:13 | 36.12610 | -86.67503 | 584 ft | 11 kts | 212° |
| 2026-05-05 21:13 | 36.12544 | -86.67570 | 585 ft | 13 kts | 223° |
| 2026-05-05 21:14 | 36.12476 | -86.67647 | 587 ft | 14 kts | 222° |
| 2026-05-05 21:14 | 36.12385 | -86.67695 | 586 ft | 15 kts | 201° |
| 2026-05-05 21:14 | 36.12368 | -86.67816 | 583 ft | 17 kts | 289° |
| 2026-05-05 21:14 | 36.12373 | -86.67966 | 582 ft | 19 kts | 227° |
| 2026-05-05 21:15 | 36.12177 | -86.68056 | 579 ft | 59 kts | 197° |
| 2026-05-05 21:15 | 36.11586 | -86.68292 | 582 ft | 118 kts | 198° |
| 2026-05-05 21:15 | 36.10686 | -86.68627 | 845 ft | 138 kts | 194° |
| 2026-05-05 21:15 | 36.09768 | -86.68944 | 1491 ft | 142 kts | 193° |
| 2026-05-05 21:16 | 36.08820 | -86.69429 | 2060 ft | 155 kts | 214° |
| 2026-05-05 21:16 | 36.08178 | -86.70547 | 2664 ft | 168 kts | 238° |
| 2026-05-05 21:16 | 36.07731 | -86.71926 | 3221 ft | 179 kts | 245° |
| 2026-05-05 21:16 | 36.07445 | -86.73463 | 3905 ft | 188 kts | 253° |
| 2026-05-05 21:17 | 36.07287 | -86.75071 | 4676 ft | 193 kts | 258° |
| 2026-05-05 21:17 | 36.07190 | -86.76728 | 5482 ft | 194 kts | 261° |
| 2026-05-05 21:17 | 36.07203 | -86.78397 | 6296 ft | 198 kts | 269° |
| 2026-05-05 21:17 | 36.07385 | -86.80163 | 6701 ft | 218 kts | 272° |
| 2026-05-05 21:18 | 36.07640 | -86.82082 | 7125 ft | 237 kts | 275° |
| 2026-05-05 21:18 | 36.07998 | -86.84172 | 7676 ft | 253 kts | 278° |
| 2026-05-05 21:18 | 36.08416 | -86.86291 | 8627 ft | 254 kts | 279° |
| 2026-05-05 21:18 | 36.08780 | -86.88423 | 9557 ft | 254 kts | 274° |
| 2026-05-05 21:19 | 36.08897 | -86.90604 | 10356 ft | 258 kts | 270° |
| 2026-05-05 21:19 | 36.08965 | -86.92916 | 10689 ft | 281 kts | 270° |
| 2026-05-05 21:19 | 36.09048 | -86.95419 | 10991 ft | 302 kts | 271° |
| 2026-05-05 21:19 | 36.09139 | -86.98041 | 11702 ft | 307 kts | 271° |
| 2026-05-05 21:20 | 36.09232 | -87.00689 | 12529 ft | 310 kts | 271° |
| 2026-05-05 21:20 | 36.09325 | -87.03362 | 13337 ft | 313 kts | 271° |
| 2026-05-05 21:20 | 36.09416 | -87.06070 | 14066 ft | 317 kts | 271° |
| 2026-05-05 21:20 | 36.09508 | -87.08808 | 14753 ft | 321 kts | 271° |
| 2026-05-05 21:21 | 36.09601 | -87.11581 | 15445 ft | 324 kts | 271° |
| 2026-05-05 21:21 | 36.09693 | -87.14384 | 16128 ft | 328 kts | 271° |
| 2026-05-05 21:21 | 36.09785 | -87.17221 | 16796 ft | 333 kts | 271° |
| 2026-05-05 21:21 | 36.09832 | -87.20096 | 17480 ft | 336 kts | 268° |
| 2026-05-05 21:22 | 36.09620 | -87.22993 | 18119 ft | 341 kts | 261° |
| 2026-05-05 21:22 | 36.09130 | -87.25838 | 18686 ft | 344 kts | 256° |
| 2026-05-05 21:22 | 36.08536 | -87.28715 | 19296 ft | 347 kts | 257° |
| 2026-05-05 21:22 | 36.07949 | -87.31617 | 19873 ft | 349 kts | 257° |
| 2026-05-05 21:23 | 36.07362 | -87.34542 | 20453 ft | 352 kts | 257° |
| 2026-05-05 21:23 | 36.06771 | -87.37487 | 21039 ft | 354 kts | 257° |
| 2026-05-05 21:23 | 36.06174 | -87.40450 | 21614 ft | 358 kts | 258° |
| 2026-05-05 21:23 | 36.05570 | -87.43442 | 22169 ft | 360 kts | 258° |
| 2026-05-05 21:24 | 36.04961 | -87.46456 | 22738 ft | 363 kts | 258° |
| 2026-05-05 21:24 | 36.04346 | -87.49491 | 23284 ft | 365 kts | 258° |
| 2026-05-05 21:24 | 36.03927 | -87.51556 | 23610 ft | 367 kts | 258° |
| 2026-05-05 21:24 | 36.03304 | -87.54620 | 24109 ft | 368 kts | 258° |
| 2026-05-05 21:25 | 36.02687 | -87.57652 | 24602 ft | 369 kts | 258° |
| 2026-05-05 21:25 | 36.02059 | -87.60735 | 25084 ft | 371 kts | 258° |
| 2026-05-05 21:25 | 36.01427 | -87.63828 | 25551 ft | 372 kts | 258° |
| 2026-05-05 21:25 | 36.00793 | -87.66933 | 26019 ft | 374 kts | 259° |
| 2026-05-05 21:26 | 36.00155 | -87.70050 | 26459 ft | 375 kts | 259° |
| 2026-05-05 21:26 | 35.99515 | -87.73173 | 26900 ft | 377 kts | 259° |
| 2026-05-05 21:26 | 35.98871 | -87.76314 | 27336 ft | 378 kts | 259° |
| 2026-05-05 21:26 | 35.98223 | -87.79465 | 27757 ft | 379 kts | 259° |
| 2026-05-05 21:27 | 35.97572 | -87.82626 | 28169 ft | 381 kts | 259° |
| 2026-05-05 21:27 | 35.96918 | -87.85799 | 28544 ft | 382 kts | 259° |
| 2026-05-05 21:27 | 35.96261 | -87.88983 | 28937 ft | 383 kts | 259° |
| 2026-05-05 21:27 | 35.95601 | -87.92175 | 29309 ft | 385 kts | 260° |
| 2026-05-05 21:28 | 35.94938 | -87.95380 | 29672 ft | 386 kts | 260° |
| 2026-05-05 21:28 | 35.94271 | -87.98597 | 30017 ft | 388 kts | 260° |
| 2026-05-05 21:28 | 35.93602 | -88.01820 | 30373 ft | 387 kts | 260° |
| 2026-05-05 21:28 | 35.92932 | -88.05039 | 30733 ft | 388 kts | 260° |
| 2026-05-05 21:29 | 35.92261 | -88.08259 | 31113 ft | 387 kts | 261° |
| 2026-05-05 21:29 | 35.91592 | -88.11460 | 31581 ft | 383 kts | 261° |
| 2026-05-05 21:29 | 35.90929 | -88.14626 | 32088 ft | 379 kts | 261° |
| 2026-05-05 21:29 | 35.90273 | -88.17758 | 32583 ft | 375 kts | 261° |
| 2026-05-05 21:30 | 35.89624 | -88.20852 | 33091 ft | 371 kts | 262° |
| 2026-05-05 21:30 | 35.88982 | -88.23912 | 33568 ft | 367 kts | 262° |
| 2026-05-05 21:30 | 35.88439 | -88.26951 | 34002 ft | 359 kts | 266° |
| 2026-05-05 21:30 | 35.88129 | -88.29978 | 34324 ft | 355 kts | 270° |
| 2026-05-05 21:31 | 35.87938 | -88.33004 | 34582 ft | 354 kts | 270° |
| 2026-05-05 21:31 | 35.87741 | -88.36023 | 34846 ft | 353 kts | 270° |
| 2026-05-05 21:31 | 35.87539 | -88.39034 | 35115 ft | 352 kts | 270° |
| 2026-05-05 21:31 | 35.87335 | -88.42035 | 35377 ft | 351 kts | 270° |
| 2026-05-05 21:32 | 35.87130 | -88.45028 | 35620 ft | 350 kts | 270° |
| 2026-05-05 21:32 | 35.86925 | -88.48013 | 35861 ft | 349 kts | 270° |
| 2026-05-05 21:32 | 35.86719 | -88.50989 | 36106 ft | 348 kts | 270° |
| 2026-05-05 21:32 | 35.86517 | -88.53917 | 36335 ft | 347 kts | 270° |
| 2026-05-05 21:33 | 35.86312 | -88.56876 | 36566 ft | 346 kts | 270° |
| 2026-05-05 21:33 | 35.86105 | -88.59865 | 36791 ft | 345 kts | 270° |
| 2026-05-05 21:33 | 35.85902 | -88.62768 | 37004 ft | 344 kts | 270° |
| 2026-05-05 21:33 | 35.85697 | -88.65702 | 37213 ft | 343 kts | 270° |
| 2026-05-05 21:34 | 35.85491 | -88.68627 | 37412 ft | 342 kts | 270° |
| 2026-05-05 21:34 | 35.85286 | -88.71545 | 37605 ft | 341 kts | 270° |
| 2026-05-05 21:34 | 35.85077 | -88.74494 | 37797 ft | 340 kts | 270° |
| 2026-05-05 21:34 | 35.84875 | -88.77356 | 37841 ft | 340 kts | 270° |
| 2026-05-05 21:35 | 35.84294 | -88.83138 | 37844 ft | 342 kts | 265° |
| 2026-05-05 21:35 | 35.83119 | -88.88853 | 37855 ft | 347 kts | 259° |
| 2026-05-05 21:36 | 35.81469 | -88.94471 | 37851 ft | 348 kts | 258° |
| 2026-05-05 21:36 | 35.79808 | -89.00076 | 37855 ft | 348 kts | 258° |
| 2026-05-05 21:37 | 35.78149 | -89.05677 | 37853 ft | 348 kts | 258° |
| 2026-05-05 21:37 | 35.76486 | -89.11270 | 37851 ft | 347 kts | 258° |
| 2026-05-05 21:38 | 35.74821 | -89.16852 | 37841 ft | 347 kts | 258° |
| 2026-05-05 21:38 | 35.73157 | -89.22423 | 37842 ft | 346 kts | 258° |
| 2026-05-05 21:39 | 35.71494 | -89.27976 | 37835 ft | 346 kts | 258° |
| 2026-05-05 21:39 | 35.69828 | -89.33531 | 37832 ft | 346 kts | 258° |
| 2026-05-05 21:40 | 35.68161 | -89.39076 | 37834 ft | 345 kts | 258° |
| 2026-05-05 21:40 | 35.66494 | -89.44609 | 37823 ft | 345 kts | 257° |
| 2026-05-05 21:41 | 35.64828 | -89.50131 | 37825 ft | 344 kts | 257° |
| 2026-05-05 21:41 | 35.63162 | -89.55643 | 37825 ft | 344 kts | 257° |
| 2026-05-05 21:42 | 35.61495 | -89.61146 | 37822 ft | 343 kts | 257° |
| 2026-05-05 21:42 | 35.59827 | -89.66641 | 37830 ft | 343 kts | 257° |
| 2026-05-05 21:43 | 35.58157 | -89.72131 | 37828 ft | 343 kts | 257° |
| 2026-05-05 21:43 | 35.56498 | -89.77577 | 37836 ft | 343 kts | 257° |
| 2026-05-05 21:44 | 35.54824 | -89.83061 | 37837 ft | 343 kts | 257° |
| 2026-05-05 21:44 | 35.53149 | -89.88538 | 37835 ft | 343 kts | 257° |
| 2026-05-05 21:45 | 35.51472 | -89.94010 | 37840 ft | 342 kts | 257° |
| 2026-05-05 21:45 | 35.49795 | -89.99474 | 37833 ft | 342 kts | 257° |
| 2026-05-05 21:46 | 35.48116 | -90.04932 | 37833 ft | 342 kts | 257° |
| 2026-05-05 21:46 | 35.46437 | -90.10380 | 37830 ft | 341 kts | 257° |
| 2026-05-05 21:47 | 35.44757 | -90.15820 | 37828 ft | 341 kts | 257° |
| 2026-05-05 21:47 | 35.43077 | -90.21253 | 37825 ft | 341 kts | 256° |
| 2026-05-05 21:48 | 35.41393 | -90.26684 | 37820 ft | 341 kts | 256° |
| 2026-05-05 21:48 | 35.39709 | -90.32107 | 37823 ft | 340 kts | 256° |
| 2026-05-05 21:49 | 35.38024 | -90.37524 | 37823 ft | 340 kts | 256° |
| 2026-05-05 21:49 | 35.36338 | -90.42935 | 37823 ft | 340 kts | 256° |
| 2026-05-05 21:50 | 35.34652 | -90.48335 | 37820 ft | 340 kts | 256° |
| 2026-05-05 21:50 | 35.32960 | -90.53744 | 37814 ft | 340 kts | 256° |
| 2026-05-05 21:51 | 35.31268 | -90.59144 | 37817 ft | 340 kts | 256° |
| 2026-05-05 21:51 | 35.29573 | -90.64542 | 37817 ft | 340 kts | 256° |
| 2026-05-05 21:52 | 35.27020 | -90.72656 | 37821 ft | 340 kts | 256° |
| 2026-05-05 21:53 | 35.25315 | -90.78060 | 37817 ft | 340 kts | 256° |
| 2026-05-05 21:53 | 35.23609 | -90.83460 | 37818 ft | 340 kts | 256° |
| 2026-05-05 21:54 | 35.21902 | -90.88852 | 37809 ft | 340 kts | 256° |
| 2026-05-05 21:54 | 35.20206 | -90.94201 | 37810 ft | 339 kts | 256° |
| 2026-05-05 21:55 | 35.18498 | -90.99576 | 37819 ft | 339 kts | 256° |
| 2026-05-05 21:55 | 35.16790 | -91.04942 | 37820 ft | 338 kts | 256° |
| 2026-05-05 21:56 | 35.15086 | -91.10287 | 37812 ft | 338 kts | 256° |
| 2026-05-05 21:56 | 35.13377 | -91.15636 | 37797 ft | 338 kts | 255° |
| 2026-05-05 21:57 | 35.11668 | -91.20977 | 37793 ft | 337 kts | 255° |
| 2026-05-05 21:57 | 35.09957 | -91.26316 | 37800 ft | 337 kts | 255° |
| 2026-05-05 21:58 | 35.08246 | -91.31644 | 37801 ft | 337 kts | 255° |
| 2026-05-05 21:58 | 35.06533 | -91.36966 | 37796 ft | 337 kts | 255° |
| 2026-05-05 21:59 | 35.04820 | -91.42284 | 37791 ft | 337 kts | 255° |
| 2026-05-05 21:59 | 35.03104 | -91.47598 | 37796 ft | 337 kts | 255° |
| 2026-05-05 22:00 | 35.01385 | -91.52912 | 37800 ft | 337 kts | 255° |
| 2026-05-05 22:00 | 34.99666 | -91.58218 | 37793 ft | 337 kts | 255° |
| 2026-05-05 22:01 | 34.97941 | -91.63532 | 37796 ft | 337 kts | 255° |
| 2026-05-05 22:01 | 34.96214 | -91.68838 | 37802 ft | 337 kts | 255° |
| 2026-05-05 22:02 | 34.94483 | -91.74155 | 37801 ft | 337 kts | 255° |
| 2026-05-05 22:02 | 34.92747 | -91.79475 | 37799 ft | 338 kts | 255° |
| 2026-05-05 22:03 | 34.91020 | -91.84761 | 37801 ft | 338 kts | 255° |
| 2026-05-05 22:03 | 34.89277 | -91.90081 | 37810 ft | 338 kts | 255° |
| 2026-05-05 22:04 | 34.87533 | -91.95400 | 37814 ft | 339 kts | 255° |
| 2026-05-05 22:04 | 34.85782 | -92.00728 | 37816 ft | 339 kts | 255° |
| 2026-05-05 22:05 | 34.84031 | -92.06050 | 37818 ft | 339 kts | 255° |
| 2026-05-05 22:05 | 34.82274 | -92.11387 | 37809 ft | 339 kts | 255° |
| 2026-05-05 22:06 | 34.80513 | -92.16715 | 37808 ft | 339 kts | 255° |
| 2026-05-05 22:06 | 34.78693 | -92.22017 | 37808 ft | 340 kts | 255° |
| 2026-05-05 22:07 | 34.76863 | -92.27330 | 37803 ft | 340 kts | 255° |
| 2026-05-05 22:07 | 34.75040 | -92.32640 | 37805 ft | 340 kts | 255° |
| 2026-05-05 22:08 | 34.73215 | -92.37952 | 37804 ft | 340 kts | 255° |
| 2026-05-05 22:08 | 34.71386 | -92.43264 | 37782 ft | 341 kts | 255° |
| 2026-05-05 22:09 | 34.69558 | -92.48566 | 37780 ft | 340 kts | 255° |
| 2026-05-05 22:09 | 34.67724 | -92.53873 | 37783 ft | 341 kts | 255° |
| 2026-05-05 22:10 | 34.65889 | -92.59179 | 37780 ft | 341 kts | 255° |
| 2026-05-05 22:10 | 34.64359 | -92.63593 | 37777 ft | 341 kts | 255° |
| 2026-05-05 22:11 | 34.62516 | -92.68902 | 37779 ft | 341 kts | 255° |
| 2026-05-05 22:11 | 34.60370 | -92.75073 | 37776 ft | 342 kts | 255° |
| 2026-05-05 22:12 | 34.58519 | -92.80387 | 37777 ft | 342 kts | 255° |
| 2026-05-05 22:12 | 34.56967 | -92.84835 | 37780 ft | 342 kts | 255° |
| 2026-05-05 22:13 | 34.55110 | -92.90151 | 37781 ft | 342 kts | 255° |
| 2026-05-05 22:13 | 34.53247 | -92.95471 | 37783 ft | 343 kts | 255° |
| 2026-05-05 22:14 | 34.51393 | -93.00760 | 37798 ft | 343 kts | 255° |
| 2026-05-05 22:14 | 34.49520 | -93.06092 | 37799 ft | 344 kts | 255° |
| 2026-05-05 22:15 | 34.47645 | -93.11423 | 37802 ft | 344 kts | 255° |
| 2026-05-05 22:15 | 34.45766 | -93.16755 | 37804 ft | 344 kts | 255° |
| 2026-05-05 22:16 | 34.43886 | -93.22082 | 37803 ft | 344 kts | 255° |
| 2026-05-05 22:16 | 34.42000 | -93.27416 | 37791 ft | 345 kts | 255° |
| 2026-05-05 22:17 | 34.40111 | -93.32750 | 37787 ft | 345 kts | 255° |
| 2026-05-05 22:17 | 34.38222 | -93.38072 | 37769 ft | 343 kts | 255° |
| 2026-05-05 22:18 | 34.36338 | -93.43376 | 37765 ft | 343 kts | 255° |
| 2026-05-05 22:18 | 34.34448 | -93.48687 | 37751 ft | 344 kts | 255° |
| 2026-05-05 22:19 | 34.32553 | -93.54003 | 37750 ft | 344 kts | 255° |
| 2026-05-05 22:19 | 34.30655 | -93.59315 | 37747 ft | 344 kts | 255° |
| 2026-05-05 22:20 | 34.28761 | -93.64610 | 37734 ft | 343 kts | 255° |
| 2026-05-05 22:20 | 34.26866 | -93.69898 | 37721 ft | 343 kts | 255° |
| 2026-05-05 22:21 | 34.24970 | -93.75182 | 37727 ft | 342 kts | 255° |
| 2026-05-05 22:21 | 34.23072 | -93.80464 | 37727 ft | 343 kts | 255° |
| 2026-05-05 22:22 | 34.21170 | -93.85745 | 37727 ft | 343 kts | 255° |
| 2026-05-05 22:22 | 34.19269 | -93.91029 | 37725 ft | 342 kts | 256° |
| 2026-05-05 22:23 | 34.17605 | -93.96388 | 37732 ft | 340 kts | 258° |
| 2026-05-05 22:23 | 34.16009 | -94.01779 | 37726 ft | 342 kts | 258° |
| 2026-05-05 22:24 | 34.14371 | -94.07174 | 37731 ft | 343 kts | 257° |
| 2026-05-05 22:24 | 34.12714 | -94.12571 | 37729 ft | 344 kts | 257° |
| 2026-05-05 22:25 | 34.11059 | -94.17951 | 37736 ft | 345 kts | 257° |
| 2026-05-05 22:25 | 34.09385 | -94.23383 | 37743 ft | 346 kts | 257° |
| 2026-05-05 22:26 | 34.07704 | -94.28829 | 37747 ft | 347 kts | 257° |
| 2026-05-05 22:26 | 34.06019 | -94.34272 | 37740 ft | 345 kts | 257° |
| 2026-05-05 22:27 | 34.04339 | -94.39694 | 37740 ft | 345 kts | 257° |
| 2026-05-05 22:27 | 34.02655 | -94.45121 | 37739 ft | 346 kts | 257° |
| 2026-05-05 22:28 | 34.00967 | -94.50548 | 37737 ft | 346 kts | 257° |
| 2026-05-05 22:28 | 33.99277 | -94.55975 | 37738 ft | 347 kts | 257° |
| 2026-05-05 22:29 | 33.97579 | -94.61415 | 37737 ft | 347 kts | 257° |
| 2026-05-05 22:29 | 33.95888 | -94.66825 | 37737 ft | 348 kts | 257° |
| 2026-05-05 22:30 | 33.94181 | -94.72275 | 37741 ft | 348 kts | 257° |
| 2026-05-05 22:30 | 33.92469 | -94.77729 | 37737 ft | 348 kts | 257° |
| 2026-05-05 22:31 | 33.90753 | -94.83187 | 37737 ft | 349 kts | 257° |
| 2026-05-05 22:31 | 33.89038 | -94.88632 | 37735 ft | 348 kts | 257° |
| 2026-05-05 22:32 | 33.87321 | -94.94076 | 37735 ft | 348 kts | 257° |
| 2026-05-05 22:32 | 33.85602 | -94.99516 | 37734 ft | 348 kts | 257° |
| 2026-05-05 22:33 | 33.83878 | -95.04961 | 37580 ft | 348 kts | 257° |
| 2026-05-05 22:33 | 33.83013 | -95.07690 | 36933 ft | 352 kts | 257° |
| 2026-05-05 22:33 | 33.82133 | -95.10482 | 35840 ft | 363 kts | 257° |
| 2026-05-05 22:33 | 33.81225 | -95.13361 | 34793 ft | 372 kts | 257° |
| 2026-05-05 22:34 | 33.80298 | -95.16275 | 34119 ft | 373 kts | 257° |
| 2026-05-05 22:34 | 33.79365 | -95.19190 | 33351 ft | 373 kts | 257° |
| 2026-05-05 22:34 | 33.78434 | -95.22092 | 32686 ft | 371 kts | 257° |
| 2026-05-05 22:34 | 33.77509 | -95.24980 | 32003 ft | 369 kts | 257° |
| 2026-05-05 22:35 | 33.76590 | -95.27857 | 31315 ft | 368 kts | 256° |
| 2026-05-05 22:35 | 33.75672 | -95.30735 | 30626 ft | 368 kts | 256° |
| 2026-05-05 22:35 | 33.74753 | -95.33609 | 29906 ft | 369 kts | 256° |
| 2026-05-05 22:35 | 33.73836 | -95.36460 | 29437 ft | 362 kts | 256° |
| 2026-05-05 22:36 | 33.72933 | -95.39251 | 28972 ft | 355 kts | 256° |
| 2026-05-05 22:36 | 33.72047 | -95.41988 | 28512 ft | 348 kts | 256° |
| 2026-05-05 22:36 | 33.71180 | -95.44670 | 28070 ft | 342 kts | 256° |
| 2026-05-05 22:36 | 33.70324 | -95.47319 | 27630 ft | 337 kts | 256° |
| 2026-05-05 22:37 | 33.69461 | -95.50017 | 27190 ft | 358 kts | 256° |
| 2026-05-05 22:37 | 33.68553 | -95.52858 | 26722 ft | 369 kts | 255° |
| 2026-05-05 22:37 | 33.67620 | -95.55741 | 26240 ft | 371 kts | 255° |
| 2026-05-05 22:37 | 33.66683 | -95.58615 | 25760 ft | 368 kts | 254° |
| 2026-05-05 22:38 | 33.65754 | -95.61456 | 25284 ft | 363 kts | 254° |
| 2026-05-05 22:38 | 33.64838 | -95.64258 | 24803 ft | 358 kts | 254° |
| 2026-05-05 22:38 | 33.63937 | -95.67021 | 24333 ft | 353 kts | 254° |
| 2026-05-05 22:38 | 33.63048 | -95.69752 | 23881 ft | 349 kts | 253° |
| 2026-05-05 22:39 | 33.62169 | -95.72449 | 23384 ft | 346 kts | 253° |
| 2026-05-05 22:39 | 33.61300 | -95.75115 | 22915 ft | 341 kts | 253° |
| 2026-05-05 22:39 | 33.60445 | -95.77738 | 22477 ft | 334 kts | 253° |
| 2026-05-05 22:39 | 33.59593 | -95.80353 | 22209 ft | 346 kts | 253° |
| 2026-05-05 22:40 | 33.58712 | -95.83071 | 21953 ft | 358 kts | 253° |
| 2026-05-05 22:40 | 33.57802 | -95.85857 | 21513 ft | 360 kts | 252° |
| 2026-05-05 22:40 | 33.56876 | -95.88683 | 20963 ft | 359 kts | 252° |
| 2026-05-05 22:40 | 33.55966 | -95.91451 | 20424 ft | 355 kts | 252° |
| 2026-05-05 22:41 | 33.55065 | -95.94189 | 19901 ft | 351 kts | 252° |
| 2026-05-05 22:41 | 33.54177 | -95.96890 | 19379 ft | 347 kts | 252° |
| 2026-05-05 22:41 | 33.53297 | -95.99569 | 18863 ft | 344 kts | 251° |
| 2026-05-05 22:41 | 33.52423 | -96.02224 | 18356 ft | 340 kts | 251° |
| 2026-05-05 22:42 | 33.51557 | -96.04855 | 17812 ft | 338 kts | 251° |
| 2026-05-05 22:42 | 33.50712 | -96.07418 | 17352 ft | 332 kts | 251° |
| 2026-05-05 22:42 | 33.49866 | -96.09983 | 17069 ft | 334 kts | 251° |
| 2026-05-05 22:42 | 33.49003 | -96.12604 | 16642 ft | 342 kts | 251° |
| 2026-05-05 22:43 | 33.48126 | -96.15264 | 16149 ft | 344 kts | 251° |
| 2026-05-05 22:43 | 33.47247 | -96.17921 | 15646 ft | 341 kts | 251° |
| 2026-05-05 22:43 | 33.46377 | -96.20548 | 15166 ft | 337 kts | 251° |
| 2026-05-05 22:43 | 33.45521 | -96.23108 | 14987 ft | 324 kts | 249° |
| 2026-05-05 22:44 | 33.44521 | -96.25475 | 14794 ft | 315 kts | 243° |
| 2026-05-05 22:44 | 33.43295 | -96.27632 | 14458 ft | 311 kts | 236° |
| 2026-05-05 22:44 | 33.41891 | -96.29592 | 14072 ft | 309 kts | 233° |
| 2026-05-05 22:44 | 33.40482 | -96.31516 | 13671 ft | 306 kts | 233° |
| 2026-05-05 22:45 | 33.39091 | -96.33429 | 13266 ft | 303 kts | 233° |
| 2026-05-05 22:45 | 33.37722 | -96.35317 | 12871 ft | 299 kts | 233° |
| 2026-05-05 22:45 | 33.36366 | -96.37185 | 12493 ft | 295 kts | 233° |
| 2026-05-05 22:45 | 33.34997 | -96.38997 | 12154 ft | 293 kts | 225° |
| 2026-05-05 22:46 | 33.33267 | -96.40311 | 11912 ft | 298 kts | 213° |
| 2026-05-05 22:46 | 33.31435 | -96.41480 | 11667 ft | 299 kts | 213° |
| 2026-05-05 22:46 | 33.29605 | -96.42635 | 11426 ft | 296 kts | 212° |
| 2026-05-05 22:46 | 33.27790 | -96.43779 | 11207 ft | 294 kts | 213° |
| 2026-05-05 22:47 | 33.25978 | -96.44925 | 10988 ft | 295 kts | 212° |
| 2026-05-05 22:47 | 33.24169 | -96.46072 | 10777 ft | 294 kts | 212° |
| 2026-05-05 22:47 | 33.22378 | -96.47205 | 10560 ft | 288 kts | 212° |
| 2026-05-05 22:47 | 33.20630 | -96.48310 | 10344 ft | 281 kts | 212° |
| 2026-05-05 22:48 | 33.18908 | -96.49400 | 10135 ft | 281 kts | 213° |
| 2026-05-05 22:48 | 33.17176 | -96.50500 | 9925 ft | 282 kts | 212° |
| 2026-05-05 22:48 | 33.15452 | -96.51593 | 9716 ft | 279 kts | 212° |
| 2026-05-05 22:48 | 33.13738 | -96.52678 | 9499 ft | 279 kts | 212° |
| 2026-05-05 22:49 | 33.12029 | -96.53758 | 9262 ft | 277 kts | 212° |
| 2026-05-05 22:49 | 33.10329 | -96.54832 | 9034 ft | 277 kts | 212° |
| 2026-05-05 22:49 | 33.08630 | -96.55907 | 8827 ft | 275 kts | 212° |
| 2026-05-05 22:49 | 33.06943 | -96.56971 | 8649 ft | 274 kts | 212° |
| 2026-05-05 22:50 | 33.05256 | -96.58037 | 8477 ft | 275 kts | 212° |
| 2026-05-05 22:50 | 33.03591 | -96.59089 | 8305 ft | 274 kts | 212° |
| 2026-05-05 22:50 | 33.01915 | -96.60145 | 8133 ft | 271 kts | 212° |
| 2026-05-05 22:50 | 33.00244 | -96.61198 | 7960 ft | 272 kts | 212° |
| 2026-05-05 22:51 | 32.98590 | -96.62240 | 7789 ft | 265 kts | 212° |
| 2026-05-05 22:51 | 32.97120 | -96.63164 | 7643 ft | 258 kts | 212° |
| 2026-05-05 22:51 | 32.95558 | -96.64144 | 7463 ft | 250 kts | 212° |
| 2026-05-05 22:51 | 32.94046 | -96.65095 | 7294 ft | 242 kts | 212° |
| 2026-05-05 22:52 | 32.92581 | -96.66016 | 7121 ft | 234 kts | 212° |
| 2026-05-05 22:52 | 32.91169 | -96.66903 | 6956 ft | 225 kts | 212° |
| 2026-05-05 22:52 | 32.89814 | -96.67754 | 6777 ft | 216 kts | 212° |
| 2026-05-05 22:52 | 32.88513 | -96.68571 | 6587 ft | 207 kts | 212° |
| 2026-05-05 22:53 | 32.87261 | -96.69358 | 6419 ft | 200 kts | 213° |
| 2026-05-05 22:53 | 32.86054 | -96.70117 | 6244 ft | 193 kts | 213° |
| 2026-05-05 22:53 | 32.84887 | -96.70852 | 6074 ft | 187 kts | 213° |
| 2026-05-05 22:53 | 32.83758 | -96.71559 | 5890 ft | 181 kts | 213° |
| 2026-05-05 22:54 | 32.82641 | -96.72265 | 5722 ft | 183 kts | 212° |
| 2026-05-05 22:54 | 32.81523 | -96.72973 | 5461 ft | 186 kts | 212° |
| 2026-05-05 22:54 | 32.80382 | -96.73691 | 5194 ft | 185 kts | 212° |
| 2026-05-05 22:54 | 32.79253 | -96.74402 | 4970 ft | 182 kts | 211° |
| 2026-05-05 22:55 | 32.78151 | -96.75092 | 4793 ft | 176 kts | 211° |
| 2026-05-05 22:55 | 32.77102 | -96.75749 | 4714 ft | 161 kts | 211° |
| 2026-05-05 22:55 | 32.76150 | -96.76342 | 4606 ft | 149 kts | 210° |
| 2026-05-05 22:55 | 32.75302 | -96.76994 | 4562 ft | 146 kts | 222° |
| 2026-05-05 22:56 | 32.74644 | -96.77934 | 4522 ft | 149 kts | 237° |
| 2026-05-05 22:56 | 32.74236 | -96.79069 | 4469 ft | 153 kts | 251° |
| 2026-05-05 22:56 | 32.74106 | -96.80315 | 4418 ft | 155 kts | 264° |
| 2026-05-05 22:56 | 32.74282 | -96.81609 | 4374 ft | 165 kts | 279° |
| 2026-05-05 22:57 | 32.74850 | -96.82837 | 4308 ft | 175 kts | 299° |
| 2026-05-05 22:57 | 32.75694 | -96.83920 | 4114 ft | 181 kts | 308° |
| 2026-05-05 22:57 | 32.76606 | -96.84940 | 3866 ft | 179 kts | 307° |
| 2026-05-05 22:57 | 32.77493 | -96.85982 | 3641 ft | 180 kts | 307° |
| 2026-05-05 22:58 | 32.78379 | -96.87020 | 3404 ft | 179 kts | 307° |
| 2026-05-05 22:58 | 32.79278 | -96.88078 | 3174 ft | 184 kts | 308° |
| 2026-05-05 22:58 | 32.80208 | -96.89172 | 2942 ft | 191 kts | 309° |
| 2026-05-05 22:58 | 32.81158 | -96.90282 | 2684 ft | 192 kts | 309° |
| 2026-05-05 22:59 | 32.82107 | -96.91396 | 2441 ft | 191 kts | 309° |
| 2026-05-05 22:59 | 32.83045 | -96.92497 | 2202 ft | 188 kts | 309° |
| 2026-05-05 22:59 | 32.83965 | -96.93575 | 1953 ft | 181 kts | 308° |
| 2026-05-05 22:59 | 32.84811 | -96.94565 | 1729 ft | 161 kts | 306° |
| 2026-05-05 23:00 | 32.86354 | -96.96393 | 1374 ft | 165 kts | 310° |
| 2026-05-05 23:00 | 32.87144 | -96.97313 | 1190 ft | 152 kts | 311° |
| 2026-05-05 23:00 | 32.87628 | -96.97882 | 1063 ft | 143 kts | 313° |
| 2026-05-05 23:01 | 32.88302 | -96.98677 | 849 ft | 124 kts | 314° |
| 2026-05-05 23:01 | 32.88851 | -96.99345 | 700 ft | 109 kts | 314° |
| 2026-05-05 23:01 | 32.89422 | -97.00026 | 665 ft | 125 kts | 319° |
| 2026-05-05 23:01 | 32.90039 | -97.00738 | 564 ft | 122 kts | 318° |
| 2026-05-05 23:02 | 32.90589 | -97.01363 | 542 ft | 79 kts | 315° |
| 2026-05-05 23:02 | 32.90794 | -97.01605 | 550 ft | 23 kts | 316° |
| 2026-05-05 23:02 | 32.90901 | -97.01734 | 560 ft | 20 kts | 315° |
| 2026-05-05 23:02 | 32.90999 | -97.01849 | 557 ft | 19 kts | 316° |
| 2026-05-05 23:03 | 32.91089 | -97.01953 | 564 ft | 17 kts | 311° |
| 2026-05-05 23:03 | 32.91126 | -97.02079 | 562 ft | 18 kts | 256° |
| 2026-05-05 23:03 | 32.91047 | -97.02201 | 562 ft | 19 kts | 226° |
| 2026-05-05 23:03 | 32.90940 | -97.02276 | 570 ft | 17 kts | 194° |
| 2026-05-05 23:04 | 32.90821 | -97.02286 | 572 ft | 18 kts | 176° |
| 2026-05-05 23:04 | 32.90726 | -97.02280 | 572 ft | 0 kts | 178° |
| 2026-05-05 23:04 | 32.90713 | -97.02280 | 572 ft | 4 kts | 179° |
| 2026-05-05 23:04 | 32.90676 | -97.02279 | 575 ft | 7 kts | 181° |
| 2026-05-05 23:05 | 32.90619 | -97.02282 | 577 ft | 9 kts | 182° |
| 2026-05-05 23:05 | 32.90549 | -97.02286 | 575 ft | 11 kts | 182° |
| 2026-05-05 23:05 | 32.90478 | -97.02318 | 581 ft | 12 kts | 236° |
| 2026-05-05 23:05 | 32.90461 | -97.02422 | 577 ft | 14 kts | 267° |
| 2026-05-05 23:06 | 32.90463 | -97.02552 | 577 ft | 17 kts | 272° |
| 2026-05-05 23:06 | 32.90468 | -97.02697 | 579 ft | 18 kts | 271° |
| 2026-05-05 23:06 | 32.90468 | -97.02853 | 579 ft | 20 kts | 271° |
| 2026-05-05 23:06 | 32.90468 | -97.03036 | 576 ft | 23 kts | 267° |
| 2026-05-05 23:07 | 32.90469 | -97.03210 | 590 ft | 17 kts | 269° |
| 2026-05-05 23:07 | 32.90469 | -97.03330 | 596 ft | 15 kts | 270° |
| 2026-05-05 23:07 | 32.90458 | -97.03446 | 597 ft | 11 kts | 257° |
| 2026-05-05 23:07 | 32.90458 | -97.03500 | 597 ft | 0 kts | 276° |